Lockney, Texas
Current Conditions -  °F | °C
As of 12:55 PM on Monday 20 Oct 2014 (Local Time) from KPVW Reporting Station
Clear Clear  
Wind Chill: 75°   Ceiling: Unl
Heat Index: 75°   Visibility: 10mi
Dew Point: 60°   Wind: 6mph
Humidity: 59%   Direction: 280°W
Pressure: 30.12"   Gusts: NA
Location:  34.12°N, 101.44°W
Report Text: KPVW 201755Z AUTO 28005KT 10SM CLR 24/16 A3012 RMK AO2 T02400156 10240 20085
Loading
Personal Weather Stations






























Interactive Weather Map
Tropical Storm Tracking
New forecast layout! Learn more

10-Day Weather Forecast

Advertisements
Track Severe Weather on mobile